sensor_id;sensor_type;location;lat;lon;timestamp;pressure;altitude;pressure_sealevel;temperature;humidity
5609;BME280;2826;51.354;9.588;2023-08-31T00:01:31;97358.34;;;15.00;91.90
5609;BME280;2826;51.354;9.588;2023-08-31T00:03:58;97360.44;;;14.95;91.98
5609;BME280;2826;51.354;9.588;2023-08-31T00:06:26;97362.03;;;14.85;92.35
5609;BME280;2826;51.354;9.588;2023-08-31T00:08:52;97369.97;;;14.83;93.36
5609;BME280;2826;51.354;9.588;2023-08-31T00:11:20;97345.00;;;14.66;92.93
5609;BME280;2826;51.354;9.588;2023-08-31T00:13:47;97366.97;;;14.76;92.91
5609;BME280;2826;51.354;9.588;2023-08-31T00:16:14;97380.03;;;14.76;93.30
5609;BME280;2826;51.354;9.588;2023-08-31T00:18:40;97382.63;;;14.76;92.82
5609;BME280;2826;51.354;9.588;2023-08-31T00:21:07;97388.31;;;14.69;93.54
5609;BME280;2826;51.354;9.588;2023-08-31T00:23:34;97387.72;;;14.65;93.56
5609;BME280;2826;51.354;9.588;2023-08-31T00:26:02;97396.38;;;14.66;93.62
5609;BME280;2826;51.354;9.588;2023-08-31T00:28:30;97389.38;;;14.66;93.63
5609;BME280;2826;51.354;9.588;2023-08-31T00:30:57;97383.09;;;14.69;93.49
5609;BME280;2826;51.354;9.588;2023-08-31T00:33:29;97393.25;;;14.73;93.04
5609;BME280;2826;51.354;9.588;2023-08-31T00:35:55;97388.03;;;14.73;93.05
5609;BME280;2826;51.354;9.588;2023-08-31T00:38:23;97398.56;;;14.72;93.05
5609;BME280;2826;51.354;9.588;2023-08-31T00:40:50;97393.78;;;14.66;92.82
5609;BME280;2826;51.354;9.588;2023-08-31T00:43:17;97398.03;;;14.67;93.35
5609;BME280;2826;51.354;9.588;2023-08-31T00:45:45;97398.03;;;14.67;93.48
5609;BME280;2826;51.354;9.588;2023-08-31T00:48:15;97398.03;;;14.67;93.07
5609;BME280;2826;51.354;9.588;2023-08-31T00:50:42;97364.56;;;14.47;93.39
5609;BME280;2826;51.354;9.588;2023-08-31T00:53:09;97397.09;;;14.68;93.05
5609;BME280;2826;51.354;9.588;2023-08-31T00:55:36;97396.16;;;14.69;92.74
5609;BME280;2826;51.354;9.588;2023-08-31T00:58:04;97391.97;;;14.66;92.54
5609;BME280;2826;51.354;9.588;2023-08-31T01:00:40;97395.44;;;14.67;92.37
5609;BME280;2826;51.354;9.588;2023-08-31T01:03:18;97395.75;;;14.62;92.50
5609;BME280;2826;51.354;9.588;2023-08-31T01:05:55;97394.19;;;14.59;92.35
5609;BME280;2826;51.354;9.588;2023-08-31T01:08:33;97397.03;;;14.56;92.41
5609;BME280;2826;51.354;9.588;2023-08-31T01:11:30;97391.16;;;14.53;92.14
5609;BME280;2826;51.354;9.588;2023-08-31T01:14:01;97385.22;;;14.37;92.32
5609;BME280;2826;51.354;9.588;2023-08-31T01:16:32;97399.50;;;14.45;92.64
5609;BME280;2826;51.354;9.588;2023-08-31T01:19:04;97400.56;;;14.42;92.28
5609;BME280;2826;51.354;9.588;2023-08-31T01:21:34;97404.13;;;14.41;92.38
5609;BME280;2826;51.354;9.588;2023-08-31T01:24:06;97402.41;;;14.40;93.11
5609;BME280;2826;51.354;9.588;2023-08-31T01:26:34;97393.69;;;14.41;92.68
5609;BME280;2826;51.354;9.588;2023-08-31T01:29:02;97407.34;;;14.45;92.70
5609;BME280;2826;51.354;9.588;2023-08-31T01:31:29;97402.97;;;14.45;93.01
5609;BME280;2826;51.354;9.588;2023-08-31T01:33:56;97406.41;;;14.46;92.76
5609;BME280;2826;51.354;9.588;2023-08-31T01:36:27;97406.41;;;14.46;92.38
5609;BME280;2826;51.354;9.588;2023-08-31T01:38:58;97408.06;;;14.47;92.85
5609;BME280;2826;51.354;9.588;2023-08-31T01:41:30;97402.84;;;14.47;92.51
5609;BME280;2826;51.354;9.588;2023-08-31T01:44:01;97412.34;;;14.48;92.10
5609;BME280;2826;51.354;9.588;2023-08-31T01:46:30;97415.16;;;14.45;92.37
5609;BME280;2826;51.354;9.588;2023-08-31T01:48:58;97421.53;;;14.41;92.58
5609;BME280;2826;51.354;9.588;2023-08-31T01:51:25;97416.31;;;14.41;92.33
5609;BME280;2826;51.354;9.588;2023-08-31T01:53:53;97420.06;;;14.36;92.75
5609;BME280;2826;51.354;9.588;2023-08-31T01:56:20;97421.81;;;14.36;92.58
5609;BME280;2826;51.354;9.588;2023-08-31T01:58:49;97416.59;;;14.36;93.04
5609;BME280;2826;51.354;9.588;2023-08-31T02:01:18;97420.91;;;14.37;93.03
5609;BME280;2826;51.354;9.588;2023-08-31T02:03:44;97419.13;;;14.37;92.63
5609;BME280;2826;51.354;9.588;2023-08-31T02:06:11;97419.13;;;14.37;92.70
5609;BME280;2826;51.354;9.588;2023-08-31T02:08:38;97422.66;;;14.36;92.67
5609;BME280;2826;51.354;9.588;2023-08-31T02:11:05;97415.47;;;14.40;92.41
5609;BME280;2826;51.354;9.588;2023-08-31T02:13:32;97420.81;;;14.39;92.91
5609;BME280;2826;51.354;9.588;2023-08-31T02:16:00;97420.06;;;14.36;92.57
5609;BME280;2826;51.354;9.588;2023-08-31T02:18:27;97417.56;;;14.35;92.79
5609;BME280;2826;51.354;9.588;2023-08-31T02:20:54;97418.69;;;14.31;93.15
5609;BME280;2826;51.354;9.588;2023-08-31T02:23:21;97421.19;;;14.32;92.72
5609;BME280;2826;51.354;9.588;2023-08-31T02:25:48;97423.09;;;14.30;93.21
5609;BME280;2826;51.354;9.588;2023-08-31T02:28:14;97424.75;;;14.31;92.80
5609;BME280;2826;51.354;9.588;2023-08-31T02:30:43;97420.16;;;14.35;93.01
5609;BME280;2826;51.354;9.588;2023-08-31T02:33:11;97429.88;;;14.33;92.96
5609;BME280;2826;51.354;9.588;2023-08-31T02:35:38;97427.25;;;14.33;92.67
5609;BME280;2826;51.354;9.588;2023-08-31T02:38:05;97427.25;;;14.33;92.86
5609;BME280;2826;51.354;9.588;2023-08-31T02:40:32;97423.91;;;14.31;92.78
5609;BME280;2826;51.354;9.588;2023-08-31T02:42:58;97418.69;;;14.31;92.95
5609;BME280;2826;51.354;9.588;2023-08-31T02:45:25;97423.00;;;14.32;92.78
5609;BME280;2826;51.354;9.588;2023-08-31T02:47:52;97429.03;;;14.32;92.42
5609;BME280;2826;51.354;9.588;2023-08-31T02:50:20;97426.31;;;14.34;92.75
5609;BME280;2826;51.354;9.588;2023-08-31T02:52:47;97429.53;;;14.37;91.98
5609;BME280;2826;51.354;9.588;2023-08-31T02:55:14;97422.06;;;14.33;91.91
5609;BME280;2826;51.354;9.588;2023-08-31T02:57:41;97426.31;;;14.34;91.91
5609;BME280;2826;51.354;9.588;2023-08-31T03:00:08;97423.81;;;14.32;91.96
5609;BME280;2826;51.354;9.588;2023-08-31T03:02:38;97425.47;;;14.33;91.96
5609;BME280;2826;51.354;9.588;2023-08-31T03:05:06;97419.53;;;14.31;91.89
5609;BME280;2826;51.354;9.588;2023-08-31T03:07:35;97421.41;;;14.29;91.68
5609;BME280;2826;51.354;9.588;2023-08-31T03:10:02;97415.47;;;14.27;92.28
5609;BME280;2826;51.354;9.588;2023-08-31T03:12:30;97419.97;;;14.25;92.20
5609;BME280;2826;51.354;9.588;2023-08-31T03:14:56;97418.91;;;14.28;92.29
5609;BME280;2826;51.354;9.588;2023-08-31T03:17:23;97417.13;;;14.28;92.26
5609;BME280;2826;51.354;9.588;2023-08-31T03:19:51;97425.91;;;14.27;92.71
5609;BME280;2826;51.354;9.588;2023-08-31T03:22:18;97417.97;;;14.29;92.39
5609;BME280;2826;51.354;9.588;2023-08-31T03:24:46;97419.00;;;14.26;92.65
5609;BME280;2826;51.354;9.588;2023-08-31T03:27:13;97424.44;;;14.23;92.55
5609;BME280;2826;51.354;9.588;2023-08-31T03:29:41;97417.44;;;14.23;92.92
5609;BME280;2826;51.354;9.588;2023-08-31T03:32:08;97410.25;;;14.27;93.04
5609;BME280;2826;51.354;9.588;2023-08-31T03:34:36;97423.19;;;14.29;92.96
5609;BME280;2826;51.354;9.588;2023-08-31T03:37:03;97424.75;;;14.31;92.59
5609;BME280;2826;51.354;9.588;2023-08-31T03:39:31;97429.13;;;14.31;92.51
5609;BME280;2826;51.354;9.588;2023-08-31T03:42:00;97438.63;;;14.32;92.54
5609;BME280;2826;51.354;9.588;2023-08-31T03:44:26;97439.78;;;14.28;92.38
5609;BME280;2826;51.354;9.588;2023-08-31T03:46:53;97436.75;;;14.34;91.93
5609;BME280;2826;51.354;9.588;2023-08-31T03:49:20;97436.84;;;14.32;91.97
5609;BME280;2826;51.354;9.588;2023-08-31T03:51:47;97436.31;;;14.27;92.45
5609;BME280;2826;51.354;9.588;2023-08-31T03:54:14;97386.66;;;14.03;91.99
5609;BME280;2826;51.354;9.588;2023-08-31T03:56:40;97439.78;;;14.41;91.75
5609;BME280;2826;51.354;9.588;2023-08-31T03:59:09;97443.97;;;14.43;92.18
5609;BME280;2826;51.354;9.588;2023-08-31T04:01:35;97443.09;;;14.43;92.21
5609;BME280;2826;51.354;9.588;2023-08-31T04:04:02;97443.09;;;14.43;92.10
5609;BME280;2826;51.354;9.588;2023-08-31T04:06:29;97445.53;;;14.46;92.47
5609;BME280;2826;51.354;9.588;2023-08-31T04:08:56;97442.28;;;14.42;91.80
5609;BME280;2826;51.354;9.588;2023-08-31T04:11:24;97449.38;;;14.40;92.30
5609;BME280;2826;51.354;9.588;2023-08-31T04:13:51;97453.44;;;14.44;92.47
5609;BME280;2826;51.354;9.588;2023-08-31T04:16:19;97453.25;;;14.34;92.67
5609;BME280;2826;51.354;9.588;2023-08-31T04:18:46;97455.00;;;14.34;92.54
5609;BME280;2826;51.354;9.588;2023-08-31T04:21:17;97455.84;;;14.34;92.64
5609;BME280;2826;51.354;9.588;2023-08-31T04:23:43;97450.84;;;14.31;92.43
5609;BME280;2826;51.354;9.588;2023-08-31T04:26:10;97459.50;;;14.32;92.32
5609;BME280;2826;51.354;9.588;2023-08-31T04:28:39;97434.34;;;14.18;92.67
5609;BME280;2826;51.354;9.588;2023-08-31T04:31:06;97456.91;;;14.32;92.92
5609;BME280;2826;51.354;9.588;2023-08-31T04:33:35;97447.91;;;14.23;92.58
5609;BME280;2826;51.354;9.588;2023-08-31T04:36:02;97464.06;;;14.28;92.84
5609;BME280;2826;51.354;9.588;2023-08-31T04:38:29;97472.75;;;14.29;92.39
5609;BME280;2826;51.354;9.588;2023-08-31T04:40:58;97459.59;;;14.30;91.93
5609;BME280;2826;51.354;9.588;2023-08-31T04:43:25;97473.56;;;14.29;92.31
5609;BME280;2826;51.354;9.588;2023-08-31T04:45:52;97468.47;;;14.28;92.35
5609;BME280;2826;51.354;9.588;2023-08-31T04:48:18;97474.31;;;14.31;92.70
5609;BME280;2826;51.354;9.588;2023-08-31T04:50:46;97471.88;;;14.28;92.89
5609;BME280;2826;51.354;9.588;2023-08-31T04:53:13;97477.94;;;14.29;92.26
5609;BME280;2826;51.354;9.588;2023-08-31T04:55:40;97482.22;;;14.30;92.62
5609;BME280;2826;51.354;9.588;2023-08-31T04:58:06;97476.06;;;14.31;93.05
5609;BME280;2826;51.354;9.588;2023-08-31T05:00:33;97482.13;;;14.31;92.90
5609;BME280;2826;51.354;9.588;2023-08-31T05:03:00;97483.06;;;14.30;92.33
5609;BME280;2826;51.354;9.588;2023-08-31T05:05:28;97490.91;;;14.30;92.60
5609;BME280;2826;51.354;9.588;2023-08-31T05:07:56;97481.69;;;14.24;92.20
5609;BME280;2826;51.354;9.588;2023-08-31T05:10:22;97488.78;;;14.22;92.44
5609;BME280;2826;51.354;9.588;2023-08-31T05:12:49;97485.88;;;14.27;92.46
5609;BME280;2826;51.354;9.588;2023-08-31T05:15:16;97492.84;;;14.27;92.54
5609;BME280;2826;51.354;9.588;2023-08-31T05:17:43;97495.59;;;14.25;92.59
5609;BME280;2826;51.354;9.588;2023-08-31T05:20:10;97499.00;;;14.26;92.46
5609;BME280;2826;51.354;9.588;2023-08-31T05:22:38;97494.84;;;14.23;92.44
5609;BME280;2826;51.354;9.588;2023-08-31T05:25:06;97495.97;;;14.19;92.59
5609;BME280;2826;51.354;9.588;2023-08-31T05:27:33;97496.72;;;14.21;92.24
5609;BME280;2826;51.354;9.588;2023-08-31T05:29:59;97499.41;;;14.19;92.66
5609;BME280;2826;51.354;9.588;2023-08-31T05:32:28;97503.41;;;14.25;92.91
5609;BME280;2826;51.354;9.588;2023-08-31T05:34:54;97507.34;;;14.31;92.77
5609;BME280;2826;51.354;9.588;2023-08-31T05:37:21;97499.44;;;14.32;92.59
5609;BME280;2826;51.354;9.588;2023-08-31T05:39:49;97514.69;;;14.39;91.84
5609;BME280;2826;51.354;9.588;2023-08-31T05:42:17;97515.41;;;14.41;91.22
5609;BME280;2826;51.354;9.588;2023-08-31T05:44:44;97520.53;;;14.42;91.65
5609;BME280;2826;51.354;9.588;2023-08-31T05:47:11;97522.97;;;14.45;91.08
5609;BME280;2826;51.354;9.588;2023-08-31T05:49:37;97522.63;;;14.50;91.42
5609;BME280;2826;51.354;9.588;2023-08-31T05:52:05;97526.72;;;14.54;90.76
5609;BME280;2826;51.354;9.588;2023-08-31T05:54:32;97527.34;;;14.58;90.99
5609;BME280;2826;51.354;9.588;2023-08-31T05:56:59;97532.34;;;14.61;90.79
5609;BME280;2826;51.354;9.588;2023-08-31T05:59:26;97531.50;;;14.60;90.55
5609;BME280;2826;51.354;9.588;2023-08-31T06:01:53;97533.31;;;14.60;90.48
5609;BME280;2826;51.354;9.588;2023-08-31T06:04:20;97535.81;;;14.61;90.28
5609;BME280;2826;51.354;9.588;2023-08-31T06:06:47;97537.47;;;14.62;90.13
5609;BME280;2826;51.354;9.588;2023-08-31T06:09:13;97504.03;;;14.42;90.43
5609;BME280;2826;51.354;9.588;2023-08-31T06:11:42;97538.09;;;14.66;90.38
5609;BME280;2826;51.354;9.588;2023-08-31T06:14:09;97538.94;;;14.67;90.66
5609;BME280;2826;51.354;9.588;2023-08-31T06:16:37;97539.38;;;14.73;91.03
5609;BME280;2826;51.354;9.588;2023-08-31T06:19:04;97543.38;;;14.79;90.04
5609;BME280;2826;51.354;9.588;2023-08-31T06:21:30;97543.69;;;14.87;90.23
5609;BME280;2826;51.354;9.588;2023-08-31T06:23:57;97544.63;;;14.86;89.16
5609;BME280;2826;51.354;9.588;2023-08-31T06:26:24;97542.34;;;14.82;89.09
5609;BME280;2826;51.354;9.588;2023-08-31T06:28:50;97547.47;;;14.83;90.05
5609;BME280;2826;51.354;9.588;2023-08-31T06:31:17;97547.75;;;14.92;89.13
5609;BME280;2826;51.354;9.588;2023-08-31T06:33:46;97547.97;;;15.01;88.28
5609;BME280;2826;51.354;9.588;2023-08-31T06:36:12;97553.41;;;15.11;89.16
5609;BME280;2826;51.354;9.588;2023-08-31T06:38:39;97557.38;;;15.17;87.88
5609;BME280;2826;51.354;9.588;2023-08-31T06:41:05;97554.25;;;15.25;87.98
5609;BME280;2826;51.354;9.588;2023-08-31T06:43:32;97567.81;;;15.30;87.06
5609;BME280;2826;51.354;9.588;2023-08-31T06:45:59;97566.75;;;15.33;86.47
5609;BME280;2826;51.354;9.588;2023-08-31T06:48:25;97581.09;;;15.40;87.06
5609;BME280;2826;51.354;9.588;2023-08-31T06:50:53;97571.84;;;15.47;85.03
5609;BME280;2826;51.354;9.588;2023-08-31T06:53:21;97570.19;;;15.59;85.21
5609;BME280;2826;51.354;9.588;2023-08-31T06:55:48;97576.34;;;15.58;83.96
5609;BME280;2826;51.354;9.588;2023-08-31T06:58:46;97578.44;;;15.53;84.08
5609;BME280;2826;51.354;9.588;2023-08-31T07:01:12;97571.75;;;15.49;84.22
5609;BME280;2826;51.354;9.588;2023-08-31T07:03:39;97580.66;;;15.46;84.33
5609;BME280;2826;51.354;9.588;2023-08-31T07:06:07;97583.88;;;15.50;84.63
5609;BME280;2826;51.354;9.588;2023-08-31T07:08:34;97576.88;;;15.50;84.20
5609;BME280;2826;51.354;9.588;2023-08-31T07:11:02;97578.13;;;15.45;84.29
5609;BME280;2826;51.354;9.588;2023-08-31T07:13:29;97586.72;;;15.47;84.56
5609;BME280;2826;51.354;9.588;2023-08-31T07:15:56;97587.84;;;15.55;84.69
5609;BME280;2826;51.354;9.588;2023-08-31T07:18:22;97586.59;;;15.61;84.20
5609;BME280;2826;51.354;9.588;2023-08-31T07:20:49;97586.28;;;15.66;83.62
5609;BME280;2826;51.354;9.588;2023-08-31T07:23:17;97579.88;;;15.70;82.83
5609;BME280;2826;51.354;9.588;2023-08-31T07:25:44;97584.28;;;15.70;82.85
5609;BME280;2826;51.354;9.588;2023-08-31T07:28:11;97588.25;;;15.75;82.42
5609;BME280;2826;51.354;9.588;2023-08-31T07:30:37;97579.25;;;15.79;82.05
5609;BME280;2826;51.354;9.588;2023-08-31T07:33:05;97583.28;;;15.84;82.23
5609;BME280;2826;51.354;9.588;2023-08-31T07:35:32;97576.59;;;15.92;81.81
5609;BME280;2826;51.354;9.588;2023-08-31T07:37:59;97585.56;;;16.01;81.31
5609;BME280;2826;51.354;9.588;2023-08-31T07:40:27;97582.19;;;16.12;81.52
5609;BME280;2826;51.354;9.588;2023-08-31T07:42:54;97589.44;;;16.33;80.72
5609;BME280;2826;51.354;9.588;2023-08-31T07:45:20;97580.97;;;16.29;77.74
5609;BME280;2826;51.354;9.588;2023-08-31T07:47:47;97591.72;;;16.38;77.98
5609;BME280;2826;51.354;9.588;2023-08-31T07:50:14;97594.16;;;16.52;76.68
5609;BME280;2826;51.354;9.588;2023-08-31T07:52:41;97592.19;;;16.67;76.43
5609;BME280;2826;51.354;9.588;2023-08-31T07:55:08;97598.88;;;16.83;75.19
5609;BME280;2826;51.354;9.588;2023-08-31T07:57:36;97603.16;;;17.08;74.45
5609;BME280;2826;51.354;9.588;2023-08-31T08:00:04;97606.75;;;17.30;73.56
5609;BME280;2826;51.354;9.588;2023-08-31T08:02:38;97607.72;;;17.41;71.54
5609;BME280;2826;51.354;9.588;2023-08-31T08:05:05;97611.28;;;17.62;70.71
5609;BME280;2826;51.354;9.588;2023-08-31T08:07:31;97611.88;;;17.77;70.01
5609;BME280;2826;51.354;9.588;2023-08-31T08:09:58;97608.69;;;17.74;67.45
5609;BME280;2826;51.354;9.588;2023-08-31T08:12:25;97614.16;;;17.82;67.97
5609;BME280;2826;51.354;9.588;2023-08-31T08:14:53;97622.84;;;17.83;66.57
5609;BME280;2826;51.354;9.588;2023-08-31T08:17:20;97623.34;;;17.76;65.31
5609;BME280;2826;51.354;9.588;2023-08-31T08:19:46;97617.59;;;17.83;65.14
5609;BME280;2826;51.354;9.588;2023-08-31T08:22:13;97622.97;;;17.93;66.00
5609;BME280;2826;51.354;9.588;2023-08-31T08:24:40;97628.19;;;17.93;65.60
5609;BME280;2826;51.354;9.588;2023-08-31T08:27:06;97626.19;;;17.85;63.82
5609;BME280;2826;51.354;9.588;2023-08-31T08:29:33;97631.09;;;17.78;63.51
5609;BME280;2826;51.354;9.588;2023-08-31T08:32:01;97636.56;;;17.75;63.51
5609;BME280;2826;51.354;9.588;2023-08-31T08:34:29;97616.19;;;17.44;64.27
5609;BME280;2826;51.354;9.588;2023-08-31T08:36:55;97623.81;;;17.47;62.42
5609;BME280;2826;51.354;9.588;2023-08-31T08:39:22;97631.53;;;17.49;62.98
5609;BME280;2826;51.354;9.588;2023-08-31T08:41:49;97633.34;;;17.60;63.60
5609;BME280;2826;51.354;9.588;2023-08-31T08:44:18;97632.63;;;17.69;63.26
5609;BME280;2826;51.354;9.588;2023-08-31T08:46:48;97612.13;;;17.86;61.26
5609;BME280;2826;51.354;9.588;2023-08-31T08:49:18;97610.81;;;17.92;59.74
5609;BME280;2826;51.354;9.588;2023-08-31T08:51:45;97621.53;;;18.00;60.68
5609;BME280;2826;51.354;9.588;2023-08-31T08:54:13;97625.69;;;18.14;59.89
5609;BME280;2826;51.354;9.588;2023-08-31T08:56:40;97622.47;;;18.22;59.98
5609;BME280;2826;51.354;9.588;2023-08-31T08:59:06;97626.19;;;18.19;58.21
5609;BME280;2826;51.354;9.588;2023-08-31T09:01:35;97628.53;;;18.22;56.33
5609;BME280;2826;51.354;9.588;2023-08-31T09:04:03;97625.22;;;18.20;57.82
5609;BME280;2826;51.354;9.588;2023-08-31T09:06:31;97630.81;;;18.15;57.44
5609;BME280;2826;51.354;9.588;2023-08-31T09:08:58;97631.16;;;18.22;53.79
5609;BME280;2826;51.354;9.588;2023-08-31T09:11:25;97627.91;;;18.41;56.51
5609;BME280;2826;51.354;9.588;2023-08-31T09:13:52;97628.13;;;18.50;54.40
5609;BME280;2826;51.354;9.588;2023-08-31T09:16:27;97620.31;;;18.60;54.44
5609;BME280;2826;51.354;9.588;2023-08-31T09:18:54;97624.09;;;18.67;53.65
5609;BME280;2826;51.354;9.588;2023-08-31T09:21:21;97627.25;;;18.49;54.89
5609;BME280;2826;51.354;9.588;2023-08-31T09:23:57;97643.81;;;18.17;57.04
5609;BME280;2826;51.354;9.588;2023-08-31T09:26:23;97633.78;;;17.99;55.79
5609;BME280;2826;51.354;9.588;2023-08-31T09:28:50;97642.88;;;17.95;54.79
5609;BME280;2826;51.354;9.588;2023-08-31T09:31:17;97643.34;;;17.89;55.16
5609;BME280;2826;51.354;9.588;2023-08-31T09:33:50;97644.66;;;17.83;55.03
5609;BME280;2826;51.354;9.588;2023-08-31T09:36:17;97640.38;;;17.82;56.67
5609;BME280;2826;51.354;9.588;2023-08-31T09:38:45;97633.81;;;17.76;58.56
5609;BME280;2826;51.354;9.588;2023-08-31T09:41:13;97648.25;;;17.82;59.23
5609;BME280;2826;51.354;9.588;2023-08-31T09:43:40;97647.88;;;17.87;58.56
5609;BME280;2826;51.354;9.588;2023-08-31T09:46:08;97612.56;;;18.02;59.27
5609;BME280;2826;51.354;9.588;2023-08-31T09:48:36;97618.47;;;18.50;55.78
5609;BME280;2826;51.354;9.588;2023-08-31T09:51:04;97635.03;;;18.84;56.63
5609;BME280;2826;51.354;9.588;2023-08-31T09:53:31;97639.06;;;18.88;55.23
5609;BME280;2826;51.354;9.588;2023-08-31T09:55:59;97631.53;;;18.83;55.23
5609;BME280;2826;51.354;9.588;2023-08-31T09:58:27;97636.63;;;18.96;55.94
5609;BME280;2826;51.354;9.588;2023-08-31T10:00:56;97632.88;;;19.31;53.73
5609;BME280;2826;51.354;9.588;2023-08-31T10:03:25;97635.53;;;19.41;53.66
5609;BME280;2826;51.354;9.588;2023-08-31T10:05:54;97634.53;;;19.32;53.49
5609;BME280;2826;51.354;9.588;2023-08-31T10:08:22;97631.38;;;19.39;53.17
5609;BME280;2826;51.354;9.588;2023-08-31T10:10:50;97630.47;;;19.50;52.46
5609;BME280;2826;51.354;9.588;2023-08-31T10:13:19;97634.50;;;19.54;49.57
5609;BME280;2826;51.354;9.588;2023-08-31T10:15:49;97631.97;;;19.42;48.91
5609;BME280;2826;51.354;9.588;2023-08-31T10:18:17;97629.47;;;19.41;49.76
5609;BME280;2826;51.354;9.588;2023-08-31T10:20:43;97629.78;;;19.48;48.97
5609;BME280;2826;51.354;9.588;2023-08-31T10:23:11;97632.09;;;19.41;49.76
5609;BME280;2826;51.354;9.588;2023-08-31T10:26:00;97627.19;;;19.57;49.86
5609;BME280;2826;51.354;9.588;2023-08-31T10:28:27;97613.44;;;19.44;48.69
5609;BME280;2826;51.354;9.588;2023-08-31T10:31:02;97629.78;;;19.48;50.40
5609;BME280;2826;51.354;9.588;2023-08-31T10:33:31;97634.84;;;19.39;49.46
5609;BME280;2826;51.354;9.588;2023-08-31T10:35:58;97644.41;;;19.40;48.58
5609;BME280;2826;51.354;9.588;2023-08-31T10:38:26;97638.13;;;19.31;47.61
5609;BME280;2826;51.354;9.588;2023-08-31T10:41:01;97634.16;;;19.37;48.14
5609;BME280;2826;51.354;9.588;2023-08-31T10:43:43;97632.44;;;19.89;48.83
5609;BME280;2826;51.354;9.588;2023-08-31T10:46:24;97625.75;;;20.16;47.11
5609;BME280;2826;51.354;9.588;2023-08-31T10:48:52;97627.75;;;20.53;46.08
5609;BME280;2826;51.354;9.588;2023-08-31T10:51:24;97634.53;;;20.75;45.60
5609;BME280;2826;51.354;9.588;2023-08-31T10:53:51;97632.44;;;20.59;45.42
5609;BME280;2826;51.354;9.588;2023-08-31T10:56:18;97633.81;;;20.34;45.83
5609;BME280;2826;51.354;9.588;2023-08-31T10:58:56;97625.00;;;20.04;46.41
5609;BME280;2826;51.354;9.588;2023-08-31T11:01:56;97617.03;;;20.15;46.38
5609;BME280;2826;51.354;9.588;2023-08-31T11:04:24;97598.63;;;20.55;46.08
5609;BME280;2826;51.354;9.588;2023-08-31T11:07:12;97622.69;;;21.29;47.58
5609;BME280;2826;51.354;9.588;2023-08-31T11:09:40;97630.16;;;21.44;45.01
5609;BME280;2826;51.354;9.588;2023-08-31T11:12:07;97625.84;;;21.43;44.95
5609;BME280;2826;51.354;9.588;2023-08-31T11:14:34;97622.19;;;21.15;45.36
5609;BME280;2826;51.354;9.588;2023-08-31T11:17:03;97633.84;;;20.83;45.62
5609;BME280;2826;51.354;9.588;2023-08-31T11:19:30;97599.88;;;20.41;45.70
5609;BME280;2826;51.354;9.588;2023-08-31T11:21:58;97635.63;;;20.33;45.52
5609;BME280;2826;51.354;9.588;2023-08-31T11:24:26;97636.94;;;20.08;46.75
5609;BME280;2826;51.354;9.588;2023-08-31T11:26:53;97638.22;;;19.82;47.33
5609;BME280;2826;51.354;9.588;2023-08-31T11:29:20;97639.16;;;19.71;48.68
5609;BME280;2826;51.354;9.588;2023-08-31T11:31:46;97630.78;;;19.56;47.86
5609;BME280;2826;51.354;9.588;2023-08-31T11:34:16;97630.13;;;19.64;48.38
5609;BME280;2826;51.354;9.588;2023-08-31T11:36:44;97642.34;;;19.75;47.52
5609;BME280;2826;51.354;9.588;2023-08-31T11:39:12;97639.88;;;19.83;47.49
5609;BME280;2826;51.354;9.588;2023-08-31T11:41:38;97638.25;;;19.92;47.18
5609;BME280;2826;51.354;9.588;2023-08-31T11:44:07;97639.59;;;20.18;46.82
5609;BME280;2826;51.354;9.588;2023-08-31T11:46:35;97630.09;;;20.46;45.88
5609;BME280;2826;51.354;9.588;2023-08-31T11:49:02;97629.69;;;20.61;45.60
5609;BME280;2826;51.354;9.588;2023-08-31T11:51:31;97608.03;;;20.47;45.53
5609;BME280;2826;51.354;9.588;2023-08-31T11:53:59;97617.47;;;20.30;45.75
5609;BME280;2826;51.354;9.588;2023-08-31T11:56:28;97612.19;;;20.30;45.03
5609;BME280;2826;51.354;9.588;2023-08-31T11:59:07;97621.34;;;20.36;44.34
5609;BME280;2826;51.354;9.588;2023-08-31T12:01:37;97613.28;;;20.37;45.46
5609;BME280;2826;51.354;9.588;2023-08-31T12:04:09;97619.38;;;20.28;44.94
5609;BME280;2826;51.354;9.588;2023-08-31T12:06:38;97626.03;;;20.13;44.19
5609;BME280;2826;51.354;9.588;2023-08-31T12:09:05;97632.94;;;20.14;43.84
5609;BME280;2826;51.354;9.588;2023-08-31T12:11:32;97613.84;;;20.31;44.47
5609;BME280;2826;51.354;9.588;2023-08-31T12:13:59;97619.00;;;20.62;43.56
5609;BME280;2826;51.354;9.588;2023-08-31T12:16:32;97616.34;;;20.82;41.67
5609;BME280;2826;51.354;9.588;2023-08-31T12:19:02;97617.63;;;20.88;41.73
5609;BME280;2826;51.354;9.588;2023-08-31T12:21:30;97625.13;;;20.93;43.10
5609;BME280;2826;51.354;9.588;2023-08-31T12:23:58;97622.31;;;20.84;42.30
5609;BME280;2826;51.354;9.588;2023-08-31T12:26:25;97632.06;;;20.74;43.34
5609;BME280;2826;51.354;9.588;2023-08-31T12:28:52;97622.09;;;20.87;42.12
5609;BME280;2826;51.354;9.588;2023-08-31T12:31:18;97615.66;;;21.00;41.49
5609;BME280;2826;51.354;9.588;2023-08-31T12:33:45;97625.13;;;20.93;41.78
5609;BME280;2826;51.354;9.588;2023-08-31T12:36:12;97622.06;;;20.78;41.72
5609;BME280;2826;51.354;9.588;2023-08-31T12:38:39;97611.25;;;20.81;41.72
5609;BME280;2826;51.354;9.588;2023-08-31T12:41:07;97624.97;;;20.84;41.01
5609;BME280;2826;51.354;9.588;2023-08-31T12:43:34;97622.50;;;20.93;42.60
5609;BME280;2826;51.354;9.588;2023-08-31T12:46:01;97616.50;;;20.71;41.65
5609;BME280;2826;51.354;9.588;2023-08-31T12:48:31;97626.06;;;20.72;42.85
5609;BME280;2826;51.354;9.588;2023-08-31T12:50:58;97630.09;;;20.66;42.67
5609;BME280;2826;51.354;9.588;2023-08-31T12:53:25;97636.47;;;20.63;42.12
5609;BME280;2826;51.354;9.588;2023-08-31T12:55:52;97629.66;;;20.51;41.66
5609;BME280;2826;51.354;9.588;2023-08-31T12:58:20;97619.81;;;20.43;42.42
5609;BME280;2826;51.354;9.588;2023-08-31T13:00:47;97628.97;;;20.49;42.52
5609;BME280;2826;51.354;9.588;2023-08-31T13:03:15;97628.41;;;20.35;42.25
5609;BME280;2826;51.354;9.588;2023-08-31T13:05:42;97620.38;;;20.37;41.92
5609;BME280;2826;51.354;9.588;2023-08-31T13:08:09;97621.75;;;20.31;41.86
5609;BME280;2826;51.354;9.588;2023-08-31T13:10:36;97617.06;;;20.55;41.40
5609;BME280;2826;51.354;9.588;2023-08-31T13:13:03;97619.97;;;20.81;41.65
5609;BME280;2826;51.354;9.588;2023-08-31T13:15:32;97618.44;;;20.79;41.41
5609;BME280;2826;51.354;9.588;2023-08-31T13:17:59;97621.38;;;20.95;41.46
5609;BME280;2826;51.354;9.588;2023-08-31T13:20:26;97617.38;;;20.91;41.31
5609;BME280;2826;51.354;9.588;2023-08-31T13:22:53;97615.84;;;20.98;40.95
5609;BME280;2826;51.354;9.588;2023-08-31T13:25:20;97624.41;;;21.10;40.47
5609;BME280;2826;51.354;9.588;2023-08-31T13:27:46;97614.28;;;20.96;39.95